Terminal Aerodrome Forecast
Issued by NWS

Home | Current Version | Previous Version | Graphics & Text | Print | Product List | Glossary On
Versions: 1 2 3 4 5 6 7 8 9 10 11 12 13 14 15 16 17 18 19
000
FTUS43 KMPX 241721
TAFAXN
TAF
KAXN 241721Z 2418/2518 18018G28KT P6SM SCT090
     FM242000 18015G25KT P6SM VCSH BKN080
     FM242200 18012G18KT P6SM BKN060
     FM250100 22006KT P6SM OVC050
     FM250200 28005KT P6SM BKN040
     FM250700 32010KT P6SM OVC008
     FM251600 35011KT P6SM BKN020=

USA.gov is the U.S. government's official web portal to all federal, state and local government web resources and services.